| time (UTC) | temp C | wind direction | speed KPH | gust KPH | rain 1hr cm | rain 24hr cm | rain mn cm | humidity % | barometer mb |
| 20260510061223 | 8 | 94 | 1.6 | 4.8 | 0.00 | 0.94 | 0.08 | 88 | 1007.0 |
| 20260510060719 | 8 | 94 | 1.6 | 4.8 | 0.00 | 0.94 | 0.08 | 89 | 1007.3 |
| 20260510060217 | 8 | 96 | 3.2 | 12.9 | 0.00 | 0.94 | 0.08 | 89 | 1007.5 |
| 20260510055709 | 9 | 153 | 6.4 | 16.1 | 0.00 | 0.94 | 0.08 | 89 | 1007.3 |
| 20260510055159 | 9 | 157 | 8.0 | 16.1 | 0.00 | 0.94 | 0.08 | 89 | 1007.5 |
| 20260510054657 | 9 | 119 | 8.0 | 19.3 | 0.00 | 0.94 | 0.08 | 89 | 1007.6 |
| 20260510054146 | 9 | 130 | 8.0 | 19.3 | 0.00 | 0.94 | 0.08 | 89 | 1007.5 |
| 20260510053642 | 9 | 148 | 8.0 | 16.1 | 0.00 | 0.94 | 0.08 | 89 | 1007.5 |
| 20260510053143 | 9 | 152 | 8.0 | 14.5 | 0.00 | 0.94 | 0.08 | 89 | 1007.5 |
| 20260510052640 | 9 | 173 | 6.4 | 14.5 | 0.00 | 0.94 | 0.08 | 89 | 1007.8 |
| 20260510052141 | 9 | 175 | 4.8 | 14.5 | 0.00 | 0.94 | 0.08 | 89 | 1007.7 |
| 20260510051636 | 9 | 144 | 4.8 | 12.9 | 0.03 | 0.94 | 0.08 | 89 | 1007.9 |
| 20260510051131 | 9 | 155 | 6.4 | 9.7 | 0.03 | 0.94 | 0.08 | 89 | 1007.9 |
| 20260510050627 | 9 | 135 | 4.8 | 9.7 | 0.05 | 0.94 | 0.08 | 89 | 1007.9 |
| 20260510050113 | 9 | 160 | 3.2 | 9.7 | 0.08 | 0.94 | 0.08 | 89 | 1007.9 |
| 20260510045831 | 9 | 161 | 4.8 | 16.1 | 0.10 | 0.94 | 0.08 | 89 | 1008.0 |
| 20260510045113 | 9 | 184 | 6.4 | 16.1 | 0.10 | 0.94 | 0.08 | 89 | 1008.0 |
| 20260510044609 | 9 | 159 | 6.4 | 12.9 | 0.10 | 0.94 | 0.08 | 89 | 1007.6 |
| 20260510044108 | 9 | 159 | 6.4 | 12.9 | 0.13 | 0.94 | 0.08 | 90 | 1007.6 |
| 20260510043607 | 9 | 127 | 3.2 | 11.3 | 0.13 | 0.94 | 0.08 | 90 | 1007.7 |
| 20260510043108 | 9 | 138 | 3.2 | 11.3 | 0.18 | 0.94 | 0.08 | 90 | 1007.8 |
| 20260510042608 | 9 | 126 | 4.8 | 11.3 | 0.20 | 0.94 | 0.08 | 90 | 1007.9 |
| 20260510042103 | 9 | 126 | 4.8 | 12.9 | 0.23 | 0.94 | 0.08 | 90 | 1007.8 |
| 20260510041557 | 9 | 144 | 6.4 | 12.9 | 0.23 | 0.91 | 0.05 | 90 | 1007.9 |
| 20260510041059 | 9 | 143 | 4.8 | 12.9 | 0.28 | 0.91 | 0.05 | 90 | 1007.9 |
| 20260510040554 | 9 | 132 | 3.2 | 9.7 | 0.30 | 0.89 | 0.03 | 90 | 1008.3 |
| 20260510040324 | 9 | 126 | 3.2 | 9.7 | 0.41 | 0.86 | 0.00 | 90 | 1008.3 |
| 20260510035820 | 9 | 169 | 3.2 | 9.7 | 0.38 | 0.84 | 0.86 | 89 | 1008.4 |
| 20260510035050 | 9 | 173 | 3.2 | 6.4 | 0.38 | 0.84 | 0.84 | 89 | 1008.4 |
| 20260510034550 | 9 | 183 | 1.6 | 6.4 | 0.38 | 0.84 | 0.84 | 89 | 1008.3 |
| 20260510034051 | 9 | 186 | 3.2 | 11.3 | 0.36 | 0.81 | 0.81 | 89 | 1008.3 |
| 20260510033809 | 9 | 235 | 8.0 | 14.5 | 0.36 | 0.81 | 0.81 | 89 | 1008.5 |
| 20260510033049 | 9 | 224 | 9.7 | 14.5 | 0.30 | 0.76 | 0.76 | 88 | 1008.9 |
| 20260510032545 | 9 | 245 | 12.9 | 19.3 | 0.28 | 0.74 | 0.74 | 88 | 1008.9 |
| 20260510032047 | 10 | 257 | 14.5 | 22.5 | 0.25 | 0.71 | 0.71 | 88 | 1008.7 |
| 20260510031545 | 10 | 288 | 16.1 | 24.1 | 0.23 | 0.69 | 0.69 | 87 | 1008.9 |
| 20260510031046 | 10 | 279 | 19.3 | 29.0 | 0.18 | 0.64 | 0.64 | 86 | 1008.9 |
| 20260510030546 | 10 | 298 | 25.7 | 43.5 | 0.13 | 0.58 | 0.58 | 85 | 1009.0 |
| 20260510030048 | 10 | 281 | 27.4 | 43.5 | 0.00 | 0.46 | 0.46 | 85 | 1008.7 |
| 20260510025545 | 11 | 270 | 17.7 | 43.5 | 0.00 | 0.46 | 0.46 | 85 | 1008.5 |
| 20260510025046 | 11 | 292 | 9.7 | 27.4 | 0.00 | 0.46 | 0.46 | 87 | 1008.4 |
| 20260510024805 | 11 | 179 | 4.8 | 12.9 | 0.00 | 0.46 | 0.46 | 87 | 1007.8 |
| 20260510024046 | 11 | 180 | 6.4 | 12.9 | 0.00 | 0.46 | 0.46 | 87 | 1007.4 |
| 20260510023540 | 11 | 115 | 8.0 | 16.1 | 0.00 | 0.46 | 0.46 | 87 | 1007.5 |
| 20260510023040 | 11 | 145 | 8.0 | 17.7 | 0.00 | 0.46 | 0.46 | 87 | 1007.5 |
| 20260510022538 | 11 | 187 | 9.7 | 17.7 | 0.00 | 0.46 | 0.46 | 87 | 1007.5 |
| 20260510022039 | 11 | 178 | 9.7 | 17.7 | 0.00 | 0.46 | 0.46 | 87 | 1007.3 |
| 20260510021538 | 11 | 116 | 9.7 | 17.7 | 0.00 | 0.46 | 0.46 | 87 | 1007.3 |
| 20260510021306 | 11 | 165 | 8.0 | 17.7 | 0.00 | 0.46 | 0.46 | 87 | 1007.4 |
| 20260510020537 | 11 | 118 | 9.7 | 16.1 | 0.00 | 0.46 | 0.46 | 87 | 1007.2 |
| 20260510020026 | 11 | 167 | 11.3 | 19.3 | 0.00 | 0.46 | 0.46 | 86 | 1007.4 |
| 20260510015525 | 11 | 159 | 11.3 | 22.5 | 0.00 | 0.46 | 0.46 | 86 | 1007.4 |
| 20260510015249 | 11 | 176 | 11.3 | 22.5 | 0.00 | 0.46 | 0.46 | 86 | 1007.3 |
| 20260510014526 | 11 | 163 | 12.9 | 27.4 | 0.00 | 0.46 | 0.46 | 86 | 1007.0 |
| 20260510014024 | 11 | 153 | 14.5 | 29.0 | 0.00 | 0.46 | 0.46 | 86 | 1006.6 |
| 20260510013744 | 11 | 186 | 12.9 | 29.0 | 0.00 | 0.46 | 0.46 | 86 | 1006.4 |
| 20260510013020 | 11 | 140 | 12.9 | 24.1 | 0.00 | 0.46 | 0.46 | 86 | 1006.2 |
| 20260510012745 | 11 | 169 | 12.9 | 24.1 | 0.00 | 0.46 | 0.46 | 86 | 1006.4 |
| 20260510012014 | 11 | 150 | 11.3 | 22.5 | 0.00 | 0.46 | 0.46 | 86 | 1006.3 |
| 20260510011739 | 11 | 157 | 9.7 | 17.7 | 0.00 | 0.46 | 0.46 | 86 | 1006.4 |
| 20260510011016 | 11 | 164 | 9.7 | 19.3 | 0.00 | 0.46 | 0.46 | 86 | 1006.6 |
| 20260510010515 | 11 | 145 | 9.7 | 19.3 | 0.00 | 0.46 | 0.46 | 86 | 1006.6 |
| 20260510010014 | 11 | 147 | 11.3 | 20.9 | 0.00 | 0.46 | 0.46 | 86 | 1006.4 |
| 20260510005511 | 11 | 168 | 11.3 | 22.5 | 0.00 | 0.46 | 0.46 | 86 | 1006.3 |
| 20260510005011 | 11 | 152 | 11.3 | 22.5 | 0.00 | 0.46 | 0.46 | 85 | 1006.1 |
| 20260510004511 | 11 | 140 | 11.3 | 22.5 | 0.00 | 0.46 | 0.46 | 85 | 1006.2 |
| 20260510004012 | 11 | 178 | 9.7 | 20.9 | 0.00 | 0.46 | 0.46 | 85 | 1006.1 |
| 20260510003734 | 11 | 155 | 11.3 | 20.9 | 0.00 | 0.46 | 0.46 | 85 | 1006.0 |
| 20260510003007 | 11 | 137 | 11.3 | 19.3 | 0.00 | 0.46 | 0.46 | 85 | 1005.8 |
| 20260510002507 | 11 | 180 | 9.7 | 19.3 | 0.00 | 0.46 | 0.46 | 85 | 1005.8 |
| 20260510002008 | 11 | 152 | 9.7 | 19.3 | 0.00 | 0.46 | 0.46 | 85 | 1005.8 |
| 20260510001506 | 11 | 161 | 9.7 | 20.9 | 0.00 | 0.46 | 0.46 | 84 | 1005.9 |
| 20260510001007 | 11 | 187 | 11.3 | 22.5 | 0.00 | 0.46 | 0.46 | 84 | 1006.1 |
| 20260510000507 | 11 | 136 | 11.3 | 24.1 | 0.00 | 0.46 | 0.46 | 84 | 1006.0 |
| 20260510000008 | 11 | 148 | 9.7 | 24.1 | 0.00 | 0.46 | 0.46 | 84 | 1006.1 |
| 20260509235508 | 11 | 180 | 9.7 | 20.9 | 0.00 | 0.46 | 0.46 | 83 | 1006.2 |
| 20260509235007 | 12 | 179 | 11.3 | 20.9 | 0.00 | 0.46 | 0.46 | 83 | 1006.0 |
| 20260509234508 | 12 | 148 | 9.7 | 20.9 | 0.00 | 0.46 | 0.46 | 83 | 1006.0 |
| 20260509234234 | 12 | 159 | 9.7 | 20.9 | 0.00 | 0.46 | 0.46 | 83 | 1005.8 |
| 20260509233504 | 12 | 173 | 9.7 | 20.9 | 0.00 | 0.46 | 0.46 | 83 | 1005.8 |
| 20260509233005 | 12 | 183 | 9.7 | 17.7 | 0.00 | 0.46 | 0.46 | 83 | 1005.7 |
| 20260509232505 | 12 | 171 | 11.3 | 19.3 | 0.00 | 0.46 | 0.46 | 83 | 1005.6 |
| 20260509232231 | 12 | 185 | 11.3 | 24.1 | 0.00 | 0.46 | 0.46 | 83 | 1005.7 |
| 20260509231503 | 12 | 168 | 11.3 | 24.1 | 0.00 | 0.46 | 0.46 | 82 | 1005.8 |
| 20260509231000 | 12 | 184 | 11.3 | 25.7 | 0.00 | 0.46 | 0.46 | 82 | 1006.1 |
| 20260509230500 | 12 | 182 | 11.3 | 25.7 | 0.00 | 0.46 | 0.46 | 82 | 1005.9 |
| 20260509225958 | 12 | 167 | 12.9 | 24.1 | 0.00 | 0.46 | 0.46 | 82 | 1005.9 |
| 20260509225457 | 12 | 169 | 14.5 | 24.1 | 0.00 | 0.46 | 0.46 | 82 | 1006.0 |
| 20260509224957 | 12 | 184 | 12.9 | 24.1 | 0.00 | 0.46 | 0.46 | 81 | 1006.0 |
| 20260509224716 | 13 | 154 | 11.3 | 24.1 | 0.00 | 0.46 | 0.46 | 81 | 1006.1 |
| 20260509224219 | 13 | 171 | 11.3 | 19.3 | 0.00 | 0.46 | 0.46 | 81 | 1006.2 |
| 20260509223719 | 13 | 181 | 11.3 | 19.3 | 0.00 | 0.46 | 0.46 | 81 | 1006.2 |
| 20260509222952 | 13 | 153 | 11.3 | 27.4 | 0.00 | 0.46 | 0.46 | 81 | 1006.1 |
| 20260509222453 | 13 | 142 | 11.3 | 27.4 | 0.00 | 0.46 | 0.46 | 81 | 1006.0 |
| 20260509221952 | 13 | 145 | 9.7 | 22.5 | 0.00 | 0.46 | 0.46 | 80 | 1006.2 |
| 20260509221453 | 13 | 153 | 8.0 | 17.7 | 0.00 | 0.46 | 0.46 | 81 | 1006.3 |
| 20260509220953 | 13 | 167 | 9.7 | 20.9 | 0.00 | 0.46 | 0.46 | 80 | 1006.1 |
| 20260509220454 | 13 | 182 | 9.7 | 20.9 | 0.00 | 0.46 | 0.46 | 81 | 1006.1 |
| 20260509215949 | 13 | 165 | 9.7 | 24.1 | 0.00 | 0.46 | 0.46 | 82 | 1006.1 |
| 20260509215449 | 12 | 180 | 11.3 | 24.1 | 0.00 | 0.46 | 0.46 | 83 | 1006.1 |
| 20260509215209 | 12 | 170 | 11.3 | 22.5 | 0.00 | 0.46 | 0.46 | 83 | 1006.1 |
| 20260509214449 | 12 | 132 | 9.7 | 20.9 | 0.00 | 0.46 | 0.46 | 82 | 1005.9 |
| 20260509213949 | 12 | 194 | 9.7 | 17.7 | 0.00 | 0.46 | 0.46 | 83 | 1006.0 |
| 20260509213449 | 12 | 183 | 9.7 | 17.7 | 0.00 | 0.46 | 0.46 | 83 | 1006.0 |
| 20260509212949 | 12 | 111 | 9.7 | 22.5 | 0.00 | 0.46 | 0.46 | 84 | 1006.0 |
| 20260509212448 | 12 | 180 | 9.7 | 22.5 | 0.00 | 0.46 | 0.46 | 83 | 1006.0 |
| 20260509211948 | 12 | 154 | 9.7 | 20.9 | 0.00 | 0.46 | 0.46 | 83 | 1006.0 |
| 20260509211449 | 11 | 160 | 9.7 | 24.1 | 0.00 | 0.46 | 0.46 | 83 | 1005.9 |
| 20260509210949 | 11 | 159 | 9.7 | 24.1 | 0.00 | 0.46 | 0.46 | 83 | 1006.1 |
| 20260509210449 | 12 | 148 | 11.3 | 19.3 | 0.00 | 0.46 | 0.46 | 83 | 1006.3 |
| 20260509205948 | 12 | 183 | 12.9 | 30.6 | 0.00 | 0.46 | 0.46 | 83 | 1006.3 |
| 20260509205449 | 12 | 181 | 12.9 | 30.6 | 0.00 | 0.46 | 0.46 | 83 | 1006.4 |
| 20260509204949 | 12 | 178 | 12.9 | 27.4 | 0.00 | 0.46 | 0.46 | 83 | 1006.3 |
| 20260509204449 | 12 | 180 | 12.9 | 29.0 | 0.00 | 0.46 | 0.46 | 83 | 1006.2 |
| 20260509203950 | 11 | 167 | 11.3 | 29.0 | 0.00 | 0.46 | 0.46 | 84 | 1006.3 |
| 20260509203449 | 11 | 182 | 9.7 | 19.3 | 0.00 | 0.46 | 0.46 | 84 | 1006.4 |
| 20260509202949 | 11 | 173 | 11.3 | 19.3 | 0.00 | 0.46 | 0.46 | 84 | 1006.6 |
| 20260509202448 | 11 | 150 | 11.3 | 19.3 | 0.00 | 0.46 | 0.46 | 83 | 1006.6 |
| 20260509201949 | 12 | 155 | 11.3 | 24.1 | 0.00 | 0.46 | 0.46 | 83 | 1006.6 |
| 20260509201449 | 12 | 176 | 11.3 | 27.4 | 0.00 | 0.46 | 0.46 | 83 | 1006.7 |
| 20260509200950 | 12 | 153 | 9.7 | 27.4 | 0.00 | 0.46 | 0.46 | 82 | 1006.9 |
| 20260509200450 | 12 | 187 | 11.3 | 20.9 | 0.00 | 0.46 | 0.46 | 84 | 1007.0 |
| 20260509195949 | 11 | 203 | 11.3 | 20.9 | 0.00 | 0.46 | 0.46 | 83 | 1007.0 |
| 20260509195710 | 11 | 163 | 11.3 | 24.1 | 0.00 | 0.46 | 0.46 | 83 | 1007.0 |
| 20260509194950 | 11 | 198 | 12.9 | 27.4 | 0.00 | 0.46 | 0.46 | 83 | 1007.2 |
| 20260509194450 | 11 | 171 | 12.9 | 27.4 | 0.00 | 0.46 | 0.46 | 83 | 1007.2 |
| 20260509193948 | 11 | 188 | 11.3 | 24.1 | 0.00 | 0.46 | 0.46 | 85 | 1007.2 |
| 20260509193448 | 11 | 190 | 9.7 | 22.5 | 0.00 | 0.46 | 0.46 | 85 | 1007.1 |
| 20260509192947 | 11 | 213 | 9.7 | 24.1 | 0.00 | 0.46 | 0.46 | 85 | 1007.1 |
| 20260509192446 | 11 | 171 | 9.7 | 24.1 | 0.00 | 0.46 | 0.46 | 85 | 1007.2 |
| 20260509191944 | 11 | 198 | 8.0 | 22.5 | 0.00 | 0.46 | 0.46 | 85 | 1007.4 |
| 20260509191444 | 11 | 170 | 9.7 | 17.7 | 0.00 | 0.46 | 0.46 | 85 | 1007.5 |
| 20260509190945 | 11 | 186 | 9.7 | 17.7 | 0.00 | 0.46 | 0.46 | 85 | 1007.4 |
| 20260509190447 | 11 | 172 | 9.7 | 20.9 | 0.00 | 0.46 | 0.46 | 85 | 1007.5 |
| 20260509185944 | 11 | 240 | 9.7 | 22.5 | 0.00 | 0.46 | 0.46 | 85 | 1007.5 |
| 20260509185439 | 11 | 167 | 9.7 | 22.5 | 0.00 | 0.46 | 0.46 | 85 | 1007.6 |
| 20260509185425 | 11 | 172 | 9.7 | 25.7 | 0.00 | 0.46 | 0.46 | 85 | 1007.6 |
| 20260509184439 | 11 | 180 | 11.3 | 25.7 | 0.00 | 0.46 | 0.46 | 85 | 1007.6 |
| 20260509183939 | 11 | 173 | 9.7 | 19.3 | 0.00 | 0.46 | 0.46 | 85 | 1007.6 |
| 20260509183436 | 11 | 178 | 9.7 | 19.3 | 0.00 | 0.46 | 0.46 | 85 | 1007.6 |
| 20260509182936 | 11 | 188 | 9.7 | 19.3 | 0.00 | 0.46 | 0.46 | 84 | 1007.6 |
| 20260509182659 | 11 | 174 | 9.7 | 24.1 | 0.00 | 0.46 | 0.46 | 85 | 1007.5 |
| 20260509181938 | 11 | 196 | 9.7 | 24.1 | 0.00 | 0.46 | 0.46 | 85 | 1007.6 |
| 20260509181436 | 11 | 207 | 9.7 | 19.3 | 0.00 | 0.46 | 0.46 | 85 | 1007.7 |
| 20260509181149 | 11 | 221 | 9.7 | 20.9 | 0.00 | 0.46 | 0.46 | 85 | 1007.7 |
| 20260509181033 | 11 | 206 | 8.0 | 20.9 | 0.00 | 0.46 | 0.46 | 85 | 1007.6 |
| 20260509175940 | 11 | 182 | 8.0 | 16.1 | 0.00 | 0.46 | 0.46 | 85 | 1007.7 |
| 20260509175435 | 11 | 164 | 8.0 | 14.5 | 0.00 | 0.46 | 0.46 | 86 | 1007.8 |
| 20260509174934 | 11 | 183 | 8.0 | 16.1 | 0.00 | 0.46 | 0.46 | 86 | 1007.7 |
| 20260509174430 | 11 | 167 | 9.7 | 22.5 | 0.00 | 0.46 | 0.46 | 86 | 1007.6 |
| 20260509173928 | 10 | 177 | 11.3 | 24.1 | 0.00 | 0.46 | 0.46 | 85 | 1007.6 |
| 20260509173429 | 10 | 186 | 11.3 | 24.1 | 0.00 | 0.46 | 0.46 | 85 | 1007.5 |
| 20260509172928 | 10 | 147 | 11.3 | 24.1 | 0.00 | 0.46 | 0.46 | 86 | 1007.4 |
| 20260509172428 | 10 | 144 | 12.9 | 24.1 | 0.00 | 0.46 | 0.46 | 85 | 1007.5 |
| 20260509172149 | 11 | 180 | 12.9 | 22.5 | 0.00 | 0.46 | 0.46 | 85 | 1007.6 |
| 20260509171427 | 11 | 182 | 12.9 | 25.7 | 0.00 | 0.46 | 0.46 | 86 | 1007.5 |
| 20260509170926 | 11 | 177 | 14.5 | 25.7 | 0.00 | 0.46 | 0.46 | 86 | 1007.6 |
| 20260509170428 | 10 | 181 | 14.5 | 29.0 | 0.00 | 0.46 | 0.46 | 86 | 1007.4 |
| 20260509165926 | 10 | 155 | 12.9 | 29.0 | 0.00 | 0.46 | 0.46 | 86 | 1007.6 |
| 20260509165426 | 10 | 146 | 11.3 | 27.4 | 0.00 | 0.46 | 0.46 | 86 | 1007.5 |
| 20260509164924 | 10 | 144 | 12.9 | 27.4 | 0.00 | 0.46 | 0.46 | 86 | 1007.6 |
| 20260509164426 | 10 | 184 | 12.9 | 37.0 | 0.00 | 0.46 | 0.46 | 87 | 1007.7 |
| 20260509163925 | 10 | 144 | 11.3 | 37.0 | 0.00 | 0.46 | 0.46 | 87 | 1007.6 |
| 20260509163419 | 10 | 179 | 9.7 | 25.7 | 0.00 | 0.46 | 0.46 | 88 | 1007.6 |
| 20260509163405 | 10 | 180 | 11.3 | 25.7 | 0.00 | 0.46 | 0.46 | 88 | 1007.7 |
| 20260509162417 | 10 | 165 | 11.3 | 22.5 | 0.00 | 0.46 | 0.46 | 88 | 1007.8 |
| 20260509162140 | 10 | 173 | 12.9 | 22.5 | 0.00 | 0.46 | 0.46 | 88 | 1007.7 |
| 20260509161412 | 10 | 172 | 11.3 | 22.5 | 0.00 | 0.46 | 0.46 | 88 | 1007.7 |
| 20260509160909 | 10 | 185 | 11.3 | 20.9 | 0.00 | 0.46 | 0.46 | 89 | 1007.8 |
| 20260509160406 | 10 | 163 | 11.3 | 19.3 | 0.00 | 0.46 | 0.46 | 89 | 1007.8 |
| 20260509155905 | 10 | 176 | 11.3 | 22.5 | 0.00 | 0.46 | 0.46 | 89 | 1007.7 |
| 20260509155406 | 9 | 167 | 11.3 | 22.5 | 0.00 | 0.46 | 0.46 | 89 | 1007.8 |
| 20260509154906 | 9 | 169 | 9.7 | 19.3 | 0.00 | 0.46 | 0.46 | 89 | 1007.7 |
| 20260509154407 | 9 | 142 | 9.7 | 22.5 | 0.00 | 0.46 | 0.46 | 89 | 1007.9 |
| 20260509153904 | 9 | 171 | 9.7 | 24.1 | 0.00 | 0.46 | 0.46 | 89 | 1007.9 |
| 20260509153400 | 9 | 157 | 9.7 | 24.1 | 0.00 | 0.46 | 0.46 | 89 | 1007.9 |
| 20260509152900 | 9 | 138 | 11.3 | 22.5 | 0.03 | 0.46 | 0.46 | 89 | 1007.8 |
| 20260509152359 | 9 | 111 | 11.3 | 22.5 | 0.03 | 0.46 | 0.46 | 89 | 1007.8 |
| 20260509151858 | 9 | 162 | 11.3 | 24.1 | 0.03 | 0.46 | 0.46 | 89 | 1008.0 |
| 20260509151357 | 9 | 154 | 12.9 | 24.1 | 0.03 | 0.46 | 0.46 | 89 | 1007.9 |
| 20260509150857 | 9 | 152 | 12.9 | 24.1 | 0.03 | 0.46 | 0.46 | 90 | 1007.9 |
| 20260509150355 | 9 | 147 | 12.9 | 24.1 | 0.05 | 0.46 | 0.46 | 90 | 1007.8 |
| 20260509145853 | 9 | 157 | 11.3 | 25.7 | 0.05 | 0.48 | 0.46 | 90 | 1007.9 |
| 20260509145617 | 9 | 113 | 11.3 | 25.7 | 0.05 | 0.48 | 0.46 | 90 | 1007.9 |
| 20260509145117 | 8 | 159 | 11.3 | 22.5 | 0.05 | 0.51 | 0.46 | 90 | 1007.8 |
| 20260509144353 | 8 | 159 | 12.9 | 22.5 | 0.08 | 0.51 | 0.46 | 90 | 1007.9 |
| 20260509143850 | 8 | 163 | 12.9 | 27.4 | 0.08 | 0.51 | 0.46 | 90 | 1008.0 |
| 20260509143350 | 8 | 165 | 12.9 | 27.4 | 0.08 | 0.51 | 0.46 | 90 | 1008.0 |
| 20260509142849 | 8 | 160 | 12.9 | 27.4 | 0.08 | 0.48 | 0.43 | 90 | 1007.9 |
| 20260509142350 | 8 | 146 | 12.9 | 27.4 | 0.08 | 0.48 | 0.43 | 90 | 1008.0 |
| 20260509141847 | 8 | 146 | 11.3 | 25.7 | 0.08 | 0.48 | 0.43 | 90 | 1008.1 |
| 20260509141347 | 8 | 153 | 9.7 | 25.7 | 0.08 | 0.51 | 0.43 | 90 | 1008.1 |
| 20260509141108 | 8 | 156 | 8.0 | 16.1 | 0.10 | 0.51 | 0.43 | 90 | 1008.3 |
| 20260509140345 | 8 | 148 | 6.4 | 14.5 | 0.08 | 0.48 | 0.41 | 90 | 1008.2 |
| 20260509135845 | 8 | 167 | 8.0 | 19.3 | 0.08 | 0.51 | 0.41 | 90 | 1008.4 |
| 20260509135604 | 8 | 175 | 8.0 | 19.3 | 0.10 | 0.51 | 0.41 | 90 | 1008.5 |
| 20260509134841 | 8 | 150 | 8.0 | 19.3 | 0.10 | 0.51 | 0.41 | 90 | 1008.4 |
| 20260509134343 | 8 | 118 | 8.0 | 19.3 | 0.08 | 0.48 | 0.38 | 90 | 1008.4 |
| 20260509133837 | 8 | 124 | 6.4 | 14.5 | 0.08 | 0.51 | 0.38 | 90 | 1008.3 |
| 20260509133337 | 8 | 118 | 6.4 | 14.5 | 0.08 | 0.51 | 0.38 | 90 | 1008.3 |
| 20260509132835 | 8 | 125 | 4.8 | 12.9 | 0.08 | 0.51 | 0.36 | 90 | 1008.4 |
| 20260509132335 | 8 | 124 | 4.8 | 11.3 | 0.10 | 0.53 | 0.36 | 90 | 1008.5 |
| 20260509131833 | 8 | 149 | 4.8 | 12.9 | 0.13 | 0.56 | 0.36 | 90 | 1008.6 |
| 20260509131602 | 8 | 154 | 6.4 | 12.9 | 0.13 | 0.56 | 0.36 | 90 | 1008.6 |
| 20260509130836 | 8 | 150 | 8.0 | 16.1 | 0.13 | 0.56 | 0.33 | 90 | 1008.7 |
| 20260509125830 | 8 | 142 | 8.0 | 14.5 | 0.15 | 0.61 | 0.33 | 90 | 1008.7 |
| 20260509125551 | 8 | 144 | 9.7 | 22.5 | 0.15 | 0.61 | 0.30 | 90 | 1008.6 |
| 20260509124831 | 8 | 165 | 9.7 | 22.5 | 0.18 | 0.61 | 0.30 | 90 | 1008.6 |
| 20260509124329 | 8 | 195 | 9.7 | 17.7 | 0.20 | 0.61 | 0.30 | 90 | 1008.7 |
| 20260509123828 | 8 | 148 | 8.0 | 17.7 | 0.23 | 0.61 | 0.30 | 90 | 1008.5 |
| 20260509123328 | 8 | 148 | 8.0 | 17.7 | 0.25 | 0.61 | 0.30 | 90 | 1008.6 |
| 20260509122828 | 8 | 163 | 6.4 | 17.7 | 0.23 | 0.58 | 0.28 | 89 | 1008.7 |
| 20260509122329 | 8 | 123 | 6.4 | 14.5 | 0.23 | 0.56 | 0.25 | 89 | 1008.9 |
| 20260509121825 | 7 | 157 | 6.4 | 14.5 | 0.20 | 0.53 | 0.23 | 89 | 1008.9 |
| 20260509121323 | 7 | 126 | 6.4 | 14.5 | 0.23 | 0.53 | 0.23 | 89 | 1008.9 |
| 20260509120820 | 7 | 169 | 6.4 | 11.3 | 0.20 | 0.51 | 0.20 | 89 | 1008.9 |
| 20260509120540 | 7 | 157 | 6.4 | 14.5 | 0.20 | 0.51 | 0.20 | 89 | 1009.0 |
| 20260509115817 | 7 | 111 | 8.0 | 14.5 | 0.18 | 0.48 | 0.18 | 89 | 1009.1 |
| 20260509115315 | 7 | 107 | 6.4 | 14.5 | 0.15 | 0.46 | 0.15 | 89 | 1009.2 |
| 20260509114815 | 7 | 159 | 6.4 | 14.5 | 0.13 | 0.43 | 0.13 | 89 | 1009.2 |
| 20260509114309 | 7 | 153 | 6.4 | 14.5 | 0.10 | 0.41 | 0.10 | 88 | 1009.2 |
| 20260509113805 | 7 | 155 | 4.8 | 11.3 | 0.08 | 0.38 | 0.10 | 88 | 1009.2 |
| 20260509113744 | 7 | 152 | 6.4 | 14.5 | 0.05 | 0.36 | 0.05 | 88 | 1009.2 |
| 20260509112804 | 7 | 131 | 4.8 | 14.5 | 0.03 | 0.33 | 0.05 | 88 | 1009.1 |
| 20260509112307 | 7 | 148 | 4.8 | 12.9 | 0.03 | 0.33 | 0.03 | 88 | 1009.1 |
| 20260509111805 | 7 | 124 | 6.4 | 12.9 | 0.03 | 0.33 | 0.03 | 88 | 1009.0 |
| 20260509111302 | 7 | 126 | 6.4 | 14.5 | 0.00 | 0.30 | 0.00 | 87 | 1009.1 |
| 20260509110801 | 7 | 134 | 8.0 | 17.7 | 0.00 | 0.30 | 0.00 | 87 | 1008.9 |
| 20260509110302 | 7 | 171 | 6.4 | 17.7 | 0.00 | 0.30 | 0.00 | 87 | 1008.9 |
| 20260509105800 | 7 | 125 | 8.0 | 16.1 | 0.00 | 0.30 | 0.00 | 87 | 1008.9 |
| 20260509105301 | 7 | 134 | 6.4 | 16.1 | 0.00 | 0.30 | 0.00 | 87 | 1008.7 |
| 20260509104758 | 7 | 127 | 8.0 | 16.1 | 0.00 | 0.30 | 0.00 | 87 | 1008.7 |
| 20260509104257 | 7 | 153 | 8.0 | 16.1 | 0.00 | 0.30 | 0.00 | 86 | 1008.7 |
| 20260509103758 | 7 | 158 | 8.0 | 14.5 | 0.00 | 0.30 | 0.00 | 86 | 1008.6 |
| 20260509103254 | 7 | 169 | 8.0 | 14.5 | 0.00 | 0.30 | 0.00 | 86 | 1008.5 |
| 20260509102750 | 7 | 146 | 8.0 | 16.1 | 0.00 | 0.30 | 0.00 | 86 | 1008.4 |
| 20260509102246 | 7 | 130 | 6.4 | 16.1 | 0.00 | 0.30 | 0.00 | 86 | 1008.5 |
| 20260509101747 | 7 | 117 | 6.4 | 12.9 | 0.00 | 0.30 | 0.00 | 86 | 1008.3 |
| 20260509101243 | 7 | 136 | 6.4 | 17.7 | 0.00 | 0.30 | 0.00 | 85 | 1008.4 |
| 20260509100746 | 7 | 130 | 8.0 | 17.7 | 0.00 | 0.30 | 0.00 | 85 | 1008.4 |
| 20260509100237 | 7 | 128 | 8.0 | 16.1 | 0.00 | 0.30 | 0.00 | 85 | 1008.4 |
| 20260509095738 | 7 | 126 | 8.0 | 19.3 | 0.00 | 0.30 | 0.00 | 85 | 1008.4 |
| 20260509095233 | 7 | 122 | 6.4 | 19.3 | 0.00 | 0.30 | 0.00 | 85 | 1008.4 |
| 20260509094730 | 7 | 128 | 6.4 | 12.9 | 0.00 | 0.30 | 0.00 | 85 | 1008.3 |
| 20260509094231 | 7 | 144 | 6.4 | 12.9 | 0.00 | 0.30 | 0.00 | 84 | 1008.2 |
| 20260509093731 | 6 | 150 | 4.8 | 12.9 | 0.00 | 0.30 | 0.00 | 84 | 1008.3 |
| 20260509093447 | 6 | 142 | 6.4 | 14.5 | 0.00 | 0.30 | 0.00 | 84 | 1008.5 |
| 20260509092729 | 6 | 120 | 6.4 | 14.5 | 0.00 | 0.30 | 0.00 | 84 | 1008.2 |
| 20260509092227 | 6 | 118 | 6.4 | 11.3 | 0.00 | 0.30 | 0.00 | 84 | 1008.3 |
| 20260509091725 | 6 | 112 | 6.4 | 12.9 | 0.00 | 0.30 | 0.00 | 84 | 1008.2 |
| 20260509091223 | 7 | 109 | 4.8 | 12.9 | 0.00 | 0.30 | 0.00 | 84 | 1008.3 |
| 20260509090719 | 7 | 117 | 4.8 | 14.5 | 0.00 | 0.30 | 0.00 | 84 | 1008.3 |
| 20260509090217 | 7 | 132 | 4.8 | 14.5 | 0.00 | 0.30 | 0.00 | 83 | 1008.4 |
| 20260509085939 | 7 | 123 | 4.8 | 12.9 | 0.00 | 0.30 | 0.00 | 83 | 1008.5 |
| 20260509085211 | 7 | 121 | 4.8 | 12.9 | 0.00 | 0.30 | 0.00 | 83 | 1008.6 |
| 20260509084713 | 7 | 122 | 4.8 | 9.7 | 0.00 | 0.30 | 0.00 | 83 | 1008.7 |
| 20260509084215 | 7 | 114 | 4.8 | 8.0 | 0.00 | 0.30 | 0.00 | 83 | 1008.7 |
| 20260509083933 | 7 | 128 | 3.2 | 8.0 | 0.00 | 0.30 | 0.00 | 83 | 1008.7 |
| 20260509083205 | 7 | 123 | 4.8 | 11.3 | 0.00 | 0.30 | 0.00 | 83 | 1008.6 |
| 20260509082659 | 7 | 117 | 4.8 | 11.3 | 0.00 | 0.30 | 0.00 | 83 | 1008.9 |
| 20260509082417 | 7 | 103 | 4.8 | 8.0 | 0.00 | 0.30 | 0.00 | 82 | 1008.9 |
| 20260509081916 | 7 | 141 | 4.8 | 11.3 | 0.00 | 0.30 | 0.00 | 82 | 1009.1 |
| 20260509081406 | 7 | 152 | 4.8 | 11.3 | 0.00 | 0.30 | 0.00 | 82 | 1009.1 |
| 20260509080643 | 7 | 153 | 4.8 | 11.3 | 0.00 | 0.30 | 0.00 | 82 | 1009.2 |
| 20260509080125 | 7 | 128 | 3.2 | 6.4 | 0.00 | 0.30 | 0.00 | 82 | 1009.2 |
| 20260509075612 | 7 | 127 | 3.2 | 11.3 | 0.00 | 0.30 | 0.00 | 82 | 1009.2 |
| 20260509075112 | 7 | 122 | 4.8 | 11.3 | 0.00 | 0.30 | 0.00 | 82 | 1009.2 |
| 20260509074834 | 7 | 134 | 6.4 | 12.9 | 0.00 | 0.30 | 0.00 | 81 | 1009.2 |
| 20260509074329 | 7 | 115 | 6.4 | 12.9 | 0.00 | 0.30 | 0.00 | 82 | 1009.1 |
| 20260509073603 | 7 | 111 | 6.4 | 11.3 | 0.00 | 0.30 | 0.00 | 81 | 1009.2 |
| 20260509073102 | 7 | 121 | 6.4 | 11.3 | 0.00 | 0.30 | 0.00 | 81 | 1009.1 |
| 20260509072600 | 7 | 121 | 6.4 | 12.9 | 0.00 | 0.30 | 0.00 | 81 | 1009.3 |
| 20260509072047 | 7 | 121 | 6.4 | 12.9 | 0.00 | 0.30 | 0.00 | 80 | 1009.3 |
| 20260509071547 | 7 | 118 | 4.8 | 11.3 | 0.00 | 0.30 | 0.00 | 80 | 1009.2 |
| 20260509071047 | 7 | 124 | 4.8 | 11.3 | 0.00 | 0.30 | 0.00 | 80 | 1009.3 |
| 20260509070544 | 7 | 125 | 6.4 | 12.9 | 0.00 | 0.30 | 0.00 | 79 | 1009.4 |
| 20260509070043 | 7 | 128 | 6.4 | 12.9 | 0.00 | 0.30 | 0.00 | 79 | 1009.3 |
| 20260509065811 | 7 | 118 | 4.8 | 11.3 | 0.00 | 0.30 | 0.00 | 78 | 1009.5 |
| 20260509065042 | 7 | 116 | 3.2 | 11.3 | 0.00 | 0.30 | 0.00 | 77 | 1009.4 |
| 20260509064542 | 7 | 120 | 3.2 | 11.3 | 0.00 | 0.30 | 0.00 | 77 | 1009.6 |
| 20260509064040 | 7 | 118 | 4.8 | 14.5 | 0.00 | 0.30 | 0.00 | 76 | 1009.7 |
| 20260509063541 | 7 | 114 | 4.8 | 14.5 | 0.00 | 0.30 | 0.00 | 75 | 1009.6 |
| 20260509063039 | 7 | 118 | 4.8 | 11.3 | 0.00 | 0.30 | 0.00 | 75 | 1009.7 |
| 20260509062537 | 6 | 106 | 1.6 | 9.7 | 0.00 | 0.30 | 0.00 | 75 | 1009.6 |
| 20260509062238 | 5 | 104 | 0.0 | 0.0 | 0.00 | 0.30 | 0.00 | 74 | 1009.7 |
| 20260509062124 | 5 | 104 | 0.0 | 4.8 | 0.00 | 0.30 | 0.00 | 75 | 1009.3 |